sensor_id;sensor_type;location;lat;lon;timestamp;pressure;altitude;pressure_sealevel;temperature
71463;BMP180;59266;52.608;13.260;2022-12-18T00:01:04;102797.00;;;-3.90
71463;BMP180;59266;52.608;13.260;2022-12-18T00:03:41;102793.00;;;-3.80
71463;BMP180;59266;52.608;13.260;2022-12-18T00:06:09;102803.00;;;-3.90
71463;BMP180;59266;52.608;13.260;2022-12-18T00:08:35;102795.00;;;-4.00
71463;BMP180;59266;52.608;13.260;2022-12-18T00:11:06;102800.00;;;-4.10
71463;BMP180;59266;52.608;13.260;2022-12-18T00:13:33;102798.00;;;-4.10
71463;BMP180;59266;52.608;13.260;2022-12-18T00:16:06;102806.00;;;-4.40
71463;BMP180;59266;52.608;13.260;2022-12-18T00:18:33;102797.00;;;-4.50
71463;BMP180;59266;52.608;13.260;2022-12-18T00:21:03;102798.00;;;-4.50
71463;BMP180;59266;52.608;13.260;2022-12-18T00:23:30;102793.00;;;-4.50
71463;BMP180;59266;52.608;13.260;2022-12-18T00:26:07;102804.00;;;-4.60
71463;BMP180;59266;52.608;13.260;2022-12-18T00:28:34;102806.00;;;-4.70
71463;BMP180;59266;52.608;13.260;2022-12-18T00:31:05;102798.00;;;-4.60
71463;BMP180;59266;52.608;13.260;2022-12-18T00:33:32;102796.00;;;-4.50
71463;BMP180;59266;52.608;13.260;2022-12-18T00:36:09;102801.00;;;-4.30
71463;BMP180;59266;52.608;13.260;2022-12-18T00:38:36;102792.00;;;-4.50
71463;BMP180;59266;52.608;13.260;2022-12-18T00:41:03;102795.00;;;-4.70
71463;BMP180;59266;52.608;13.260;2022-12-18T00:43:35;102801.00;;;-4.80
71463;BMP180;59266;52.608;13.260;2022-12-18T00:46:02;102809.00;;;-4.70
71463;BMP180;59266;52.608;13.260;2022-12-18T00:48:30;102804.00;;;-4.70
71463;BMP180;59266;52.608;13.260;2022-12-18T00:50:57;102801.00;;;-4.90
71463;BMP180;59266;52.608;13.260;2022-12-18T00:53:23;102794.00;;;-4.90
71463;BMP180;59266;52.608;13.260;2022-12-18T00:55:50;102796.00;;;-4.90
71463;BMP180;59266;52.608;13.260;2022-12-18T00:58:16;102799.00;;;-4.70
71463;BMP180;59266;52.608;13.260;2022-12-18T01:00:43;102790.00;;;-4.80
71463;BMP180;59266;52.608;13.260;2022-12-18T01:03:13;102796.00;;;-4.60
71463;BMP180;59266;52.608;13.260;2022-12-18T01:05:41;102796.00;;;-4.60
71463;BMP180;59266;52.608;13.260;2022-12-18T01:08:08;102800.00;;;-4.50
71463;BMP180;59266;52.608;13.260;2022-12-18T01:10:35;102812.00;;;-4.60
71463;BMP180;59266;52.608;13.260;2022-12-18T01:13:01;102811.00;;;-4.50
71463;BMP180;59266;52.608;13.260;2022-12-18T01:15:28;102800.00;;;-4.40
71463;BMP180;59266;52.608;13.260;2022-12-18T01:17:55;102806.00;;;-4.30
71463;BMP180;59266;52.608;13.260;2022-12-18T01:20:21;102811.00;;;-4.30
71463;BMP180;59266;52.608;13.260;2022-12-18T01:22:48;102820.00;;;-4.30
71463;BMP180;59266;52.608;13.260;2022-12-18T01:25:14;102837.00;;;-4.60
71463;BMP180;59266;52.608;13.260;2022-12-18T01:27:41;102833.00;;;-4.70
71463;BMP180;59266;52.608;13.260;2022-12-18T01:30:08;102831.00;;;-4.70
71463;BMP180;59266;52.608;13.260;2022-12-18T01:32:35;102834.00;;;-5.00
71463;BMP180;59266;52.608;13.260;2022-12-18T01:35:02;102832.00;;;-4.80
71463;BMP180;59266;52.608;13.260;2022-12-18T01:37:29;102826.00;;;-4.90
71463;BMP180;59266;52.608;13.260;2022-12-18T01:39:55;102829.00;;;-5.00
71463;BMP180;59266;52.608;13.260;2022-12-18T01:42:22;102831.00;;;-5.00
71463;BMP180;59266;52.608;13.260;2022-12-18T01:45:04;102838.00;;;-5.10
71463;BMP180;59266;52.608;13.260;2022-12-18T01:47:41;102836.00;;;-5.20
71463;BMP180;59266;52.608;13.260;2022-12-18T01:50:16;102840.00;;;-5.00
71463;BMP180;59266;52.608;13.260;2022-12-18T01:52:48;102831.00;;;-5.10
71463;BMP180;59266;52.608;13.260;2022-12-18T01:55:18;102842.00;;;-5.00
71463;BMP180;59266;52.608;13.260;2022-12-18T01:57:45;102849.00;;;-5.00
71463;BMP180;59266;52.608;13.260;2022-12-18T02:00:16;102851.00;;;-5.00
71463;BMP180;59266;52.608;13.260;2022-12-18T02:02:44;102846.00;;;-4.70
71463;BMP180;59266;52.608;13.260;2022-12-18T02:05:15;102853.00;;;-4.60
71463;BMP180;59266;52.608;13.260;2022-12-18T02:08:10;102841.00;;;-4.60
71463;BMP180;59266;52.608;13.260;2022-12-18T02:24:59;102845.00;;;-4.60
71463;BMP180;59266;52.608;13.260;2022-12-18T02:27:29;102848.00;;;-4.70
71463;BMP180;59266;52.608;13.260;2022-12-18T02:29:59;102855.00;;;-4.90
71463;BMP180;59266;52.608;13.260;2022-12-18T02:32:39;102859.00;;;-5.00
71463;BMP180;59266;52.608;13.260;2022-12-18T02:35:11;102862.00;;;-5.10
71463;BMP180;59266;52.608;13.260;2022-12-18T02:37:39;102860.00;;;-5.00
71463;BMP180;59266;52.608;13.260;2022-12-18T02:40:12;102859.00;;;-5.00
71463;BMP180;59266;52.608;13.260;2022-12-18T02:42:43;102859.00;;;-5.20
71463;BMP180;59266;52.608;13.260;2022-12-18T02:45:09;102860.00;;;-5.30
71463;BMP180;59266;52.608;13.260;2022-12-18T02:47:38;102867.00;;;-5.40
71463;BMP180;59266;52.608;13.260;2022-12-18T02:52:41;102867.00;;;-5.10
71463;BMP180;59266;52.608;13.260;2022-12-18T02:55:20;102861.00;;;-5.20
71463;BMP180;59266;52.608;13.260;2022-12-18T02:57:49;102870.00;;;-5.00
71463;BMP180;59266;52.608;13.260;2022-12-18T03:00:22;102866.00;;;-5.00
71463;BMP180;59266;52.608;13.260;2022-12-18T03:02:58;102869.00;;;-5.10
71463;BMP180;59266;52.608;13.260;2022-12-18T03:05:31;102863.00;;;-4.90
71463;BMP180;59266;52.608;13.260;2022-12-18T03:08:06;102865.00;;;-4.90
71463;BMP180;59266;52.608;13.260;2022-12-18T03:10:38;102859.00;;;-5.10
71463;BMP180;59266;52.608;13.260;2022-12-18T03:13:23;102863.00;;;-5.10
71463;BMP180;59266;52.608;13.260;2022-12-18T03:16:06;102852.00;;;-5.20
71463;BMP180;59266;52.608;13.260;2022-12-18T03:18:38;102866.00;;;-5.40
71463;BMP180;59266;52.608;13.260;2022-12-18T03:21:06;102867.00;;;-5.20
71463;BMP180;59266;52.608;13.260;2022-12-18T03:23:43;102858.00;;;-5.30
71463;BMP180;59266;52.608;13.260;2022-12-18T03:26:14;102856.00;;;-5.30
71463;BMP180;59266;52.608;13.260;2022-12-18T03:28:45;102855.00;;;-5.20
71463;BMP180;59266;52.608;13.260;2022-12-18T03:31:14;102860.00;;;-5.10
71463;BMP180;59266;52.608;13.260;2022-12-18T03:33:47;102862.00;;;-4.90
71463;BMP180;59266;52.608;13.260;2022-12-18T03:36:17;102855.00;;;-5.10
71463;BMP180;59266;52.608;13.260;2022-12-18T03:38:44;102861.00;;;-5.10
71463;BMP180;59266;52.608;13.260;2022-12-18T03:41:28;102868.00;;;-5.10
71463;BMP180;59266;52.608;13.260;2022-12-18T03:44:14;102864.00;;;-5.20
71463;BMP180;59266;52.608;13.260;2022-12-18T03:46:56;102868.00;;;-5.10
71463;BMP180;59266;52.608;13.260;2022-12-18T03:49:47;102864.00;;;-5.40
71463;BMP180;59266;52.608;13.260;2022-12-18T03:52:22;102866.00;;;-5.50
71463;BMP180;59266;52.608;13.260;2022-12-18T03:54:50;102874.00;;;-5.50
71463;BMP180;59266;52.608;13.260;2022-12-18T03:57:23;102873.00;;;-5.40
71463;BMP180;59266;52.608;13.260;2022-12-18T03:59:56;102866.00;;;-5.40
71463;BMP180;59266;52.608;13.260;2022-12-18T04:02:24;102870.00;;;-5.40
71463;BMP180;59266;52.608;13.260;2022-12-18T04:04:53;102864.00;;;-5.50
71463;BMP180;59266;52.608;13.260;2022-12-18T04:07:23;102876.00;;;-5.40
71463;BMP180;59266;52.608;13.260;2022-12-18T04:09:53;102872.00;;;-5.50
71463;BMP180;59266;52.608;13.260;2022-12-18T04:12:24;102883.00;;;-5.40
71463;BMP180;59266;52.608;13.260;2022-12-18T04:14:51;102884.00;;;-5.30
71463;BMP180;59266;52.608;13.260;2022-12-18T04:17:18;102886.00;;;-5.30
71463;BMP180;59266;52.608;13.260;2022-12-18T04:19:44;102874.00;;;-5.30
71463;BMP180;59266;52.608;13.260;2022-12-18T04:22:11;102867.00;;;-5.50
71463;BMP180;59266;52.608;13.260;2022-12-18T04:24:38;102870.00;;;-5.40
71463;BMP180;59266;52.608;13.260;2022-12-18T04:27:04;102880.00;;;-5.40
71463;BMP180;59266;52.608;13.260;2022-12-18T04:29:31;102884.00;;;-5.40
71463;BMP180;59266;52.608;13.260;2022-12-18T04:31:59;102883.00;;;-5.50
71463;BMP180;59266;52.608;13.260;2022-12-18T04:34:26;102896.00;;;-5.40
71463;BMP180;59266;52.608;13.260;2022-12-18T04:36:52;102887.00;;;-5.50
71463;BMP180;59266;52.608;13.260;2022-12-18T04:39:19;102903.00;;;-5.60
71463;BMP180;59266;52.608;13.260;2022-12-18T04:41:45;102889.00;;;-5.70
71463;BMP180;59266;52.608;13.260;2022-12-18T04:44:13;102883.00;;;-5.60
71463;BMP180;59266;52.608;13.260;2022-12-18T04:46:40;102889.00;;;-5.60
71463;BMP180;59266;52.608;13.260;2022-12-18T04:49:07;102886.00;;;-5.70
71463;BMP180;59266;52.608;13.260;2022-12-18T04:51:34;102882.00;;;-5.50
71463;BMP180;59266;52.608;13.260;2022-12-18T04:54:00;102884.00;;;-5.60
71463;BMP180;59266;52.608;13.260;2022-12-18T04:56:30;102908.00;;;-5.60
71463;BMP180;59266;52.608;13.260;2022-12-18T04:58:58;102910.00;;;-5.70
71463;BMP180;59266;52.608;13.260;2022-12-18T05:01:24;102913.00;;;-5.60
71463;BMP180;59266;52.608;13.260;2022-12-18T05:03:59;102921.00;;;-5.50
71463;BMP180;59266;52.608;13.260;2022-12-18T05:06:26;102909.00;;;-5.30
71463;BMP180;59266;52.608;13.260;2022-12-18T05:08:52;102906.00;;;-5.40
71463;BMP180;59266;52.608;13.260;2022-12-18T05:11:19;102907.00;;;-5.70
71463;BMP180;59266;52.608;13.260;2022-12-18T05:13:46;102916.00;;;-5.70
71463;BMP180;59266;52.608;13.260;2022-12-18T05:16:13;102918.00;;;-5.50
71463;BMP180;59266;52.608;13.260;2022-12-18T05:18:40;102912.00;;;-5.40
71463;BMP180;59266;52.608;13.260;2022-12-18T05:21:07;102920.00;;;-5.40
71463;BMP180;59266;52.608;13.260;2022-12-18T05:23:34;102931.00;;;-5.50
71463;BMP180;59266;52.608;13.260;2022-12-18T05:26:02;102942.00;;;-5.40
71463;BMP180;59266;52.608;13.260;2022-12-18T05:28:31;102942.00;;;-5.40
71463;BMP180;59266;52.608;13.260;2022-12-18T05:30:59;102948.00;;;-5.40
71463;BMP180;59266;52.608;13.260;2022-12-18T05:33:29;102936.00;;;-5.40
71463;BMP180;59266;52.608;13.260;2022-12-18T05:36:04;102947.00;;;-5.50
71463;BMP180;59266;52.608;13.260;2022-12-18T05:38:32;102935.00;;;-5.40
71463;BMP180;59266;52.608;13.260;2022-12-18T05:41:02;102935.00;;;-5.40
71463;BMP180;59266;52.608;13.260;2022-12-18T05:43:37;102925.00;;;-5.40
71463;BMP180;59266;52.608;13.260;2022-12-18T05:46:11;102934.00;;;-5.20
71463;BMP180;59266;52.608;13.260;2022-12-18T05:48:39;102947.00;;;-5.30
71463;BMP180;59266;52.608;13.260;2022-12-18T05:51:08;102943.00;;;-5.30
71463;BMP180;59266;52.608;13.260;2022-12-18T05:53:36;102945.00;;;-5.20
71463;BMP180;59266;52.608;13.260;2022-12-18T05:56:05;102943.00;;;-5.20
71463;BMP180;59266;52.608;13.260;2022-12-18T05:58:32;102949.00;;;-5.20
71463;BMP180;59266;52.608;13.260;2022-12-18T06:01:09;102947.00;;;-5.10
71463;BMP180;59266;52.608;13.260;2022-12-18T06:03:38;102953.00;;;-5.10
71463;BMP180;59266;52.608;13.260;2022-12-18T06:06:20;102962.00;;;-5.20
71463;BMP180;59266;52.608;13.260;2022-12-18T06:08:47;102945.00;;;-5.10
71463;BMP180;59266;52.608;13.260;2022-12-18T06:11:17;102946.00;;;-5.40
71463;BMP180;59266;52.608;13.260;2022-12-18T06:13:49;102948.00;;;-5.60
71463;BMP180;59266;52.608;13.260;2022-12-18T06:16:23;102963.00;;;-5.50
71463;BMP180;59266;52.608;13.260;2022-12-18T06:18:49;102982.00;;;-5.50
71463;BMP180;59266;52.608;13.260;2022-12-18T06:21:16;102960.00;;;-5.40
71463;BMP180;59266;52.608;13.260;2022-12-18T06:23:43;102966.00;;;-5.50
71463;BMP180;59266;52.608;13.260;2022-12-18T06:26:11;102962.00;;;-5.50
71463;BMP180;59266;52.608;13.260;2022-12-18T06:28:38;102967.00;;;-5.50
71463;BMP180;59266;52.608;13.260;2022-12-18T06:31:05;102982.00;;;-5.50
71463;BMP180;59266;52.608;13.260;2022-12-18T06:33:33;102979.00;;;-5.60
71463;BMP180;59266;52.608;13.260;2022-12-18T06:36:01;102982.00;;;-5.60
71463;BMP180;59266;52.608;13.260;2022-12-18T06:38:28;102996.00;;;-5.50
71463;BMP180;59266;52.608;13.260;2022-12-18T06:40:55;103004.00;;;-5.50
71463;BMP180;59266;52.608;13.260;2022-12-18T06:43:21;102999.00;;;-5.60
71463;BMP180;59266;52.608;13.260;2022-12-18T06:45:48;103009.00;;;-5.60
71463;BMP180;59266;52.608;13.260;2022-12-18T06:48:19;103001.00;;;-5.60
71463;BMP180;59266;52.608;13.260;2022-12-18T06:50:46;103015.00;;;-5.70
71463;BMP180;59266;52.608;13.260;2022-12-18T06:53:13;103018.00;;;-5.50
71463;BMP180;59266;52.608;13.260;2022-12-18T06:55:40;103010.00;;;-5.30
71463;BMP180;59266;52.608;13.260;2022-12-18T06:58:06;103018.00;;;-5.20
71463;BMP180;59266;52.608;13.260;2022-12-18T07:00:33;103008.00;;;-5.20
71463;BMP180;59266;52.608;13.260;2022-12-18T07:03:00;102996.00;;;-5.20
71463;BMP180;59266;52.608;13.260;2022-12-18T07:05:27;102998.00;;;-5.40
71463;BMP180;59266;52.608;13.260;2022-12-18T07:07:53;102993.00;;;-5.30
71463;BMP180;59266;52.608;13.260;2022-12-18T07:10:20;103001.00;;;-5.30
71463;BMP180;59266;52.608;13.260;2022-12-18T07:12:46;103000.00;;;-5.40
71463;BMP180;59266;52.608;13.260;2022-12-18T07:15:14;102998.00;;;-5.40
71463;BMP180;59266;52.608;13.260;2022-12-18T07:17:40;103008.00;;;-5.50
71463;BMP180;59266;52.608;13.260;2022-12-18T07:20:07;103007.00;;;-5.60
71463;BMP180;59266;52.608;13.260;2022-12-18T07:22:34;103017.00;;;-5.50
71463;BMP180;59266;52.608;13.260;2022-12-18T07:25:01;103014.00;;;-5.40
71463;BMP180;59266;52.608;13.260;2022-12-18T07:27:27;103010.00;;;-5.40
71463;BMP180;59266;52.608;13.260;2022-12-18T07:29:54;103016.00;;;-5.30
71463;BMP180;59266;52.608;13.260;2022-12-18T07:32:21;103013.00;;;-5.20
71463;BMP180;59266;52.608;13.260;2022-12-18T07:34:47;103007.00;;;-5.20
71463;BMP180;59266;52.608;13.260;2022-12-18T07:37:14;103003.00;;;-5.20
71463;BMP180;59266;52.608;13.260;2022-12-18T07:39:40;103004.00;;;-5.20
71463;BMP180;59266;52.608;13.260;2022-12-18T07:42:07;103010.00;;;-5.30
71463;BMP180;59266;52.608;13.260;2022-12-18T07:44:53;103010.00;;;-5.30
71463;BMP180;59266;52.608;13.260;2022-12-18T07:47:21;103006.00;;;-5.40
71463;BMP180;59266;52.608;13.260;2022-12-18T07:49:49;103001.00;;;-5.30
71463;BMP180;59266;52.608;13.260;2022-12-18T07:52:16;103009.00;;;-5.30
71463;BMP180;59266;52.608;13.260;2022-12-18T07:54:49;103003.00;;;-5.40
71463;BMP180;59266;52.608;13.260;2022-12-18T07:57:16;103009.00;;;-5.50
71463;BMP180;59266;52.608;13.260;2022-12-18T08:00:04;103019.00;;;-5.30
71463;BMP180;59266;52.608;13.260;2022-12-18T08:02:31;103010.00;;;-5.30
71463;BMP180;59266;52.608;13.260;2022-12-18T08:04:58;103026.00;;;-5.30
71463;BMP180;59266;52.608;13.260;2022-12-18T08:07:24;103022.00;;;-5.40
71463;BMP180;59266;52.608;13.260;2022-12-18T08:09:51;103034.00;;;-5.50
71463;BMP180;59266;52.608;13.260;2022-12-18T08:12:17;103025.00;;;-5.60
71463;BMP180;59266;52.608;13.260;2022-12-18T08:14:44;103029.00;;;-5.40
71463;BMP180;59266;52.608;13.260;2022-12-18T08:17:11;103043.00;;;-5.50
71463;BMP180;59266;52.608;13.260;2022-12-18T08:19:37;103033.00;;;-5.40
71463;BMP180;59266;52.608;13.260;2022-12-18T08:22:04;103034.00;;;-5.40
71463;BMP180;59266;52.608;13.260;2022-12-18T08:24:33;103043.00;;;-5.40
71463;BMP180;59266;52.608;13.260;2022-12-18T08:27:09;103036.00;;;-5.40
71463;BMP180;59266;52.608;13.260;2022-12-18T08:29:54;103041.00;;;-5.50
71463;BMP180;59266;52.608;13.260;2022-12-18T08:32:21;103028.00;;;-5.40
71463;BMP180;59266;52.608;13.260;2022-12-18T08:34:48;103040.00;;;-5.30
71463;BMP180;59266;52.608;13.260;2022-12-18T08:37:14;103033.00;;;-5.20
71463;BMP180;59266;52.608;13.260;2022-12-18T08:39:41;103042.00;;;-5.30
71463;BMP180;59266;52.608;13.260;2022-12-18T08:42:07;103047.00;;;-5.10
71463;BMP180;59266;52.608;13.260;2022-12-18T08:44:55;103051.00;;;-4.90
71463;BMP180;59266;52.608;13.260;2022-12-18T08:47:21;103038.00;;;-4.90
71463;BMP180;59266;52.608;13.260;2022-12-18T08:49:49;103050.00;;;-4.90
71463;BMP180;59266;52.608;13.260;2022-12-18T08:52:16;103055.00;;;-4.90
71463;BMP180;59266;52.608;13.260;2022-12-18T08:54:43;103063.00;;;-4.90
71463;BMP180;59266;52.608;13.260;2022-12-18T08:57:09;103066.00;;;-4.90
71463;BMP180;59266;52.608;13.260;2022-12-18T08:59:36;103062.00;;;-4.70
71463;BMP180;59266;52.608;13.260;2022-12-18T09:02:03;103063.00;;;-4.70
71463;BMP180;59266;52.608;13.260;2022-12-18T09:04:32;103060.00;;;-4.70
71463;BMP180;59266;52.608;13.260;2022-12-18T09:06:59;103062.00;;;-4.70
71463;BMP180;59266;52.608;13.260;2022-12-18T09:09:26;103060.00;;;-4.80
71463;BMP180;59266;52.608;13.260;2022-12-18T09:11:53;103065.00;;;-4.90
71463;BMP180;59266;52.608;13.260;2022-12-18T09:14:19;103081.00;;;-5.00
71463;BMP180;59266;52.608;13.260;2022-12-18T09:16:46;103067.00;;;-5.00
71463;BMP180;59266;52.608;13.260;2022-12-18T09:19:12;103061.00;;;-5.00
71463;BMP180;59266;52.608;13.260;2022-12-18T09:21:39;103068.00;;;-4.70
71463;BMP180;59266;52.608;13.260;2022-12-18T09:24:16;103071.00;;;-4.70
71463;BMP180;59266;52.608;13.260;2022-12-18T09:26:43;103068.00;;;-4.40
71463;BMP180;59266;52.608;13.260;2022-12-18T09:29:12;103067.00;;;-4.30
71463;BMP180;59266;52.608;13.260;2022-12-18T09:31:40;103073.00;;;-4.50
71463;BMP180;59266;52.608;13.260;2022-12-18T09:34:07;103076.00;;;-4.50
71463;BMP180;59266;52.608;13.260;2022-12-18T09:36:33;103063.00;;;-4.50
71463;BMP180;59266;52.608;13.260;2022-12-18T09:39:00;103064.00;;;-4.50
71463;BMP180;59266;52.608;13.260;2022-12-18T09:41:37;103062.00;;;-4.50
71463;BMP180;59266;52.608;13.260;2022-12-18T09:44:18;103066.00;;;-4.50
71463;BMP180;59266;52.608;13.260;2022-12-18T09:49:37;103051.00;;;-4.70
71463;BMP180;59266;52.608;13.260;2022-12-18T09:52:12;103043.00;;;-4.70
71463;BMP180;59266;52.608;13.260;2022-12-18T09:54:41;103036.00;;;-4.50
71463;BMP180;59266;52.608;13.260;2022-12-18T09:57:15;103039.00;;;-4.70
71463;BMP180;59266;52.608;13.260;2022-12-18T09:59:44;103028.00;;;-4.70
71463;BMP180;59266;52.608;13.260;2022-12-18T10:02:18;103020.00;;;-4.60
71463;BMP180;59266;52.608;13.260;2022-12-18T10:05:14;103012.00;;;-4.50
71463;BMP180;59266;52.608;13.260;2022-12-18T10:08:03;103017.00;;;-4.10
71463;BMP180;59266;52.608;13.260;2022-12-18T10:15:59;103023.00;;;-4.00
71463;BMP180;59266;52.608;13.260;2022-12-18T10:21:23;103019.00;;;-3.90
71463;BMP180;59266;52.608;13.260;2022-12-18T10:26:31;103020.00;;;-3.70
71463;BMP180;59266;52.608;13.260;2022-12-18T10:28:58;103024.00;;;-4.00
71463;BMP180;59266;52.608;13.260;2022-12-18T10:31:31;103001.00;;;-4.10
71463;BMP180;59266;52.608;13.260;2022-12-18T10:33:57;103007.00;;;-4.10
71463;BMP180;59266;52.608;13.260;2022-12-18T10:36:24;103000.00;;;-4.30
71463;BMP180;59266;52.608;13.260;2022-12-18T10:38:51;102992.00;;;-4.10
71463;BMP180;59266;52.608;13.260;2022-12-18T10:44:12;102992.00;;;-3.80
71463;BMP180;59266;52.608;13.260;2022-12-18T10:46:41;102985.00;;;-3.80
71463;BMP180;59266;52.608;13.260;2022-12-18T10:49:19;102979.00;;;-3.90
71463;BMP180;59266;52.608;13.260;2022-12-18T10:51:47;102979.00;;;-4.00
71463;BMP180;59266;52.608;13.260;2022-12-18T10:54:20;102982.00;;;-3.90
71463;BMP180;59266;52.608;13.260;2022-12-18T10:56:47;102972.00;;;-4.00
71463;BMP180;59266;52.608;13.260;2022-12-18T10:59:16;102971.00;;;-4.00
71463;BMP180;59266;52.608;13.260;2022-12-18T11:01:55;102980.00;;;-3.90
71463;BMP180;59266;52.608;13.260;2022-12-18T11:06:59;102976.00;;;-3.70
71463;BMP180;59266;52.608;13.260;2022-12-18T11:09:37;102967.00;;;-3.60
71463;BMP180;59266;52.608;13.260;2022-12-18T11:14:34;102974.00;;;-3.60
71463;BMP180;59266;52.608;13.260;2022-12-18T11:17:32;102985.00;;;-3.50
71463;BMP180;59266;52.608;13.260;2022-12-18T11:20:04;102971.00;;;-3.50
71463;BMP180;59266;52.608;13.260;2022-12-18T11:22:33;102980.00;;;-3.50
71463;BMP180;59266;52.608;13.260;2022-12-18T11:25:05;102971.00;;;-3.50
71463;BMP180;59266;52.608;13.260;2022-12-18T11:27:59;102968.00;;;-3.70
71463;BMP180;59266;52.608;13.260;2022-12-18T11:30:29;102960.00;;;-3.50
71463;BMP180;59266;52.608;13.260;2022-12-18T11:33:06;102966.00;;;-3.40
71463;BMP180;59266;52.608;13.260;2022-12-18T11:35:54;102961.00;;;-3.30
71463;BMP180;59266;52.608;13.260;2022-12-18T11:38:40;102967.00;;;-3.30
71463;BMP180;59266;52.608;13.260;2022-12-18T11:41:28;102963.00;;;-3.10
71463;BMP180;59266;52.608;13.260;2022-12-18T11:44:28;102980.00;;;-3.30
71463;BMP180;59266;52.608;13.260;2022-12-18T11:47:05;102993.00;;;-3.10
71463;BMP180;59266;52.608;13.260;2022-12-18T11:49:36;102985.00;;;-3.10
71463;BMP180;59266;52.608;13.260;2022-12-18T11:52:10;103007.00;;;-3.30
71463;BMP180;59266;52.608;13.260;2022-12-18T11:54:40;103004.00;;;-3.10
71463;BMP180;59266;52.608;13.260;2022-12-18T12:00:21;103006.00;;;-3.30
71463;BMP180;59266;52.608;13.260;2022-12-18T12:03:03;103002.00;;;-3.40
71463;BMP180;59266;52.608;13.260;2022-12-18T12:05:51;102997.00;;;-3.30
71463;BMP180;59266;52.608;13.260;2022-12-18T12:08:30;103007.00;;;-3.20
71463;BMP180;59266;52.608;13.260;2022-12-18T12:11:22;103016.00;;;-3.20
71463;BMP180;59266;52.608;13.260;2022-12-18T12:16:56;103021.00;;;-2.80
71463;BMP180;59266;52.608;13.260;2022-12-18T12:22:08;103017.00;;;-2.90
71463;BMP180;59266;52.608;13.260;2022-12-18T12:27:33;103006.00;;;-2.80
71463;BMP180;59266;52.608;13.260;2022-12-18T12:30:10;103011.00;;;-2.90
71463;BMP180;59266;52.608;13.260;2022-12-18T12:33:02;103020.00;;;-3.10
71463;BMP180;59266;52.608;13.260;2022-12-18T12:38:25;103020.00;;;-2.90
71463;BMP180;59266;52.608;13.260;2022-12-18T12:41:02;103018.00;;;-2.90
71463;BMP180;59266;52.608;13.260;2022-12-18T12:43:39;103011.00;;;-3.00
71463;BMP180;59266;52.608;13.260;2022-12-18T12:46:20;103017.00;;;-3.00
71463;BMP180;59266;52.608;13.260;2022-12-18T12:48:51;102998.00;;;-2.90
71463;BMP180;59266;52.608;13.260;2022-12-18T12:51:43;102980.00;;;-2.80
71463;BMP180;59266;52.608;13.260;2022-12-18T12:54:17;102963.00;;;-2.70
71463;BMP180;59266;52.608;13.260;2022-12-18T12:59:57;102961.00;;;-2.80
71463;BMP180;59266;52.608;13.260;2022-12-18T13:02:51;102960.00;;;-3.00
71463;BMP180;59266;52.608;13.260;2022-12-18T13:05:25;102966.00;;;-3.00
71463;BMP180;59266;52.608;13.260;2022-12-18T13:08:07;102970.00;;;-3.10
71463;BMP180;59266;52.608;13.260;2022-12-18T13:10:39;102971.00;;;-3.20
71463;BMP180;59266;52.608;13.260;2022-12-18T13:13:14;102973.00;;;-3.20
71463;BMP180;59266;52.608;13.260;2022-12-18T13:16:06;102976.00;;;-3.30
71463;BMP180;59266;52.608;13.260;2022-12-18T13:18:34;102967.00;;;-3.10
71463;BMP180;59266;52.608;13.260;2022-12-18T13:21:07;102978.00;;;-3.10
71463;BMP180;59266;52.608;13.260;2022-12-18T13:23:39;102977.00;;;-2.90
71463;BMP180;59266;52.608;13.260;2022-12-18T13:34:17;102962.00;;;-3.00
71463;BMP180;59266;52.608;13.260;2022-12-18T13:39:58;102953.00;;;-3.40
71463;BMP180;59266;52.608;13.260;2022-12-18T13:42:39;102948.00;;;-3.30
71463;BMP180;59266;52.608;13.260;2022-12-18T13:45:44;102949.00;;;-3.40
71463;BMP180;59266;52.608;13.260;2022-12-18T13:48:17;102940.00;;;-3.30
71463;BMP180;59266;52.608;13.260;2022-12-18T13:50:52;102935.00;;;-3.40
71463;BMP180;59266;52.608;13.260;2022-12-18T13:53:23;102939.00;;;-3.30
71463;BMP180;59266;52.608;13.260;2022-12-18T13:55:51;102951.00;;;-3.10
71463;BMP180;59266;52.608;13.260;2022-12-18T13:58:17;102949.00;;;-3.10
71463;BMP180;59266;52.608;13.260;2022-12-18T14:00:44;102924.00;;;-3.20
71463;BMP180;59266;52.608;13.260;2022-12-18T14:03:23;102925.00;;;-3.20
71463;BMP180;59266;52.608;13.260;2022-12-18T14:06:07;102934.00;;;-3.30
71463;BMP180;59266;52.608;13.260;2022-12-18T14:08:54;102929.00;;;-3.30
71463;BMP180;59266;52.608;13.260;2022-12-18T14:11:26;102927.00;;;-3.20
71463;BMP180;59266;52.608;13.260;2022-12-18T14:13:53;102941.00;;;-3.20
71463;BMP180;59266;52.608;13.260;2022-12-18T14:16:23;102929.00;;;-3.30
71463;BMP180;59266;52.608;13.260;2022-12-18T14:18:54;102930.00;;;-3.20
71463;BMP180;59266;52.608;13.260;2022-12-18T14:21:49;102914.00;;;-3.20
71463;BMP180;59266;52.608;13.260;2022-12-18T14:24:19;102911.00;;;-3.30
71463;BMP180;59266;52.608;13.260;2022-12-18T14:27:17;102904.00;;;-3.20
71463;BMP180;59266;52.608;13.260;2022-12-18T14:29:45;102897.00;;;-3.10
71463;BMP180;59266;52.608;13.260;2022-12-18T14:32:19;102883.00;;;-3.30
71463;BMP180;59266;52.608;13.260;2022-12-18T14:34:51;102889.00;;;-3.30
71463;BMP180;59266;52.608;13.260;2022-12-18T14:37:24;102881.00;;;-3.30
71463;BMP180;59266;52.608;13.260;2022-12-18T14:40:04;102880.00;;;-3.40
71463;BMP180;59266;52.608;13.260;2022-12-18T14:42:38;102874.00;;;-3.50
71463;BMP180;59266;52.608;13.260;2022-12-18T14:45:35;102881.00;;;-3.60
71463;BMP180;59266;52.608;13.260;2022-12-18T14:50:40;102873.00;;;-3.60
71463;BMP180;59266;52.608;13.260;2022-12-18T14:53:20;102865.00;;;-3.70
71463;BMP180;59266;52.608;13.260;2022-12-18T14:55:48;102875.00;;;-3.60
71463;BMP180;59266;52.608;13.260;2022-12-18T14:58:16;102877.00;;;-3.50
71463;BMP180;59266;52.608;13.260;2022-12-18T15:00:46;102890.00;;;-3.50
71463;BMP180;59266;52.608;13.260;2022-12-18T15:03:18;102905.00;;;-3.50
71463;BMP180;59266;52.608;13.260;2022-12-18T15:05:47;102898.00;;;-3.50
71463;BMP180;59266;52.608;13.260;2022-12-18T15:08:28;102903.00;;;-3.50
71463;BMP180;59266;52.608;13.260;2022-12-18T15:10:55;102904.00;;;-3.30
71463;BMP180;59266;52.608;13.260;2022-12-18T15:13:24;102895.00;;;-3.40
71463;BMP180;59266;52.608;13.260;2022-12-18T15:15:52;102897.00;;;-3.50
71463;BMP180;59266;52.608;13.260;2022-12-18T15:18:21;102891.00;;;-3.40